sensor_id;sensor_type;location;lat;lon;timestamp;P1;durP1;ratioP1;P2;durP2;ratioP2
68247;SDS011;55064;49.636;12.164;2022-11-28T00:02:22;9.23;;;2.92;;
68247;SDS011;55064;49.636;12.164;2022-11-28T00:04:50;12.30;;;3.75;;
68247;SDS011;55064;49.636;12.164;2022-11-28T00:10:30;9.73;;;3.33;;
68247;SDS011;55064;49.636;12.164;2022-11-28T00:12:57;11.17;;;3.37;;
68247;SDS011;55064;49.636;12.164;2022-11-28T00:15:25;10.07;;;2.95;;
68247;SDS011;55064;49.636;12.164;2022-11-28T00:17:53;11.95;;;4.10;;
68247;SDS011;55064;49.636;12.164;2022-11-28T00:20:21;10.10;;;3.20;;
68247;SDS011;55064;49.636;12.164;2022-11-28T00:22:48;10.77;;;3.47;;
68247;SDS011;55064;49.636;12.164;2022-11-28T00:25:13;11.23;;;3.72;;
68247;SDS011;55064;49.636;12.164;2022-11-28T00:27:43;11.85;;;4.10;;
68247;SDS011;55064;49.636;12.164;2022-11-28T00:30:09;8.37;;;2.93;;
68247;SDS011;55064;49.636;12.164;2022-11-28T00:32:35;9.32;;;3.40;;
68247;SDS011;55064;49.636;12.164;2022-11-28T00:35:00;9.83;;;3.57;;
68247;SDS011;55064;49.636;12.164;2022-11-28T00:37:26;9.30;;;2.50;;
68247;SDS011;55064;49.636;12.164;2022-11-28T00:39:53;7.13;;;2.67;;
68247;SDS011;55064;49.636;12.164;2022-11-28T00:42:19;13.02;;;4.10;;
68247;SDS011;55064;49.636;12.164;2022-11-28T00:44:48;14.25;;;4.15;;
68247;SDS011;55064;49.636;12.164;2022-11-28T00:47:14;10.87;;;3.67;;
68247;SDS011;55064;49.636;12.164;2022-11-28T00:49:40;12.35;;;3.95;;
68247;SDS011;55064;49.636;12.164;2022-11-28T00:52:07;11.23;;;3.78;;
68247;SDS011;55064;49.636;12.164;2022-11-28T00:54:32;12.35;;;3.95;;
68247;SDS011;55064;49.636;12.164;2022-11-28T00:57:01;10.23;;;3.70;;
68247;SDS011;55064;49.636;12.164;2022-11-28T00:59:26;11.75;;;3.88;;
68247;SDS011;55064;49.636;12.164;2022-11-28T01:01:51;10.33;;;3.70;;
68247;SDS011;55064;49.636;12.164;2022-11-28T01:04:17;10.43;;;4.03;;
68247;SDS011;55064;49.636;12.164;2022-11-28T01:06:46;11.18;;;4.03;;
68247;SDS011;55064;49.636;12.164;2022-11-28T01:09:19;10.20;;;4.00;;
68247;SDS011;55064;49.636;12.164;2022-11-28T01:11:46;11.98;;;4.50;;
68247;SDS011;55064;49.636;12.164;2022-11-28T01:14:17;12.10;;;4.45;;
68247;SDS011;55064;49.636;12.164;2022-11-28T01:16:44;11.18;;;4.20;;
68247;SDS011;55064;49.636;12.164;2022-11-28T01:19:12;11.47;;;4.00;;
68247;SDS011;55064;49.636;12.164;2022-11-28T01:21:38;10.95;;;3.67;;
68247;SDS011;55064;49.636;12.164;2022-11-28T01:24:04;13.00;;;4.40;;
68247;SDS011;55064;49.636;12.164;2022-11-28T01:26:30;8.73;;;2.95;;
68247;SDS011;55064;49.636;12.164;2022-11-28T01:29:00;12.97;;;4.23;;
68247;SDS011;55064;49.636;12.164;2022-11-28T01:31:26;10.90;;;3.22;;
68247;SDS011;55064;49.636;12.164;2022-11-28T01:33:53;8.77;;;2.90;;
68247;SDS011;55064;49.636;12.164;2022-11-28T01:36:19;9.10;;;3.28;;
68247;SDS011;55064;49.636;12.164;2022-11-28T01:38:45;14.88;;;4.38;;
68247;SDS011;55064;49.636;12.164;2022-11-28T01:41:11;12.77;;;4.00;;
68247;SDS011;55064;49.636;12.164;2022-11-28T01:43:37;12.07;;;4.35;;
68247;SDS011;55064;49.636;12.164;2022-11-28T01:46:21;9.77;;;3.40;;
68247;SDS011;55064;49.636;12.164;2022-11-28T01:48:50;14.20;;;4.50;;
68247;SDS011;55064;49.636;12.164;2022-11-28T01:51:17;12.73;;;4.38;;
68247;SDS011;55064;49.636;12.164;2022-11-28T01:53:43;12.90;;;4.68;;
68247;SDS011;55064;49.636;12.164;2022-11-28T01:56:17;13.17;;;4.87;;
68247;SDS011;55064;49.636;12.164;2022-11-28T01:58:46;12.43;;;4.68;;
68247;SDS011;55064;49.636;12.164;2022-11-28T02:01:20;13.68;;;4.80;;
68247;SDS011;55064;49.636;12.164;2022-11-28T02:03:49;14.70;;;4.43;;
68247;SDS011;55064;49.636;12.164;2022-11-28T02:06:21;13.77;;;4.72;;
68247;SDS011;55064;49.636;12.164;2022-11-28T02:08:51;13.10;;;3.93;;
68247;SDS011;55064;49.636;12.164;2022-11-28T02:33:50;13.77;;;4.82;;
68247;SDS011;55064;49.636;12.164;2022-11-28T02:36:13;13.67;;;4.93;;
68247;SDS011;55064;49.636;12.164;2022-11-28T02:44:14;14.40;;;5.40;;
68247;SDS011;55064;49.636;12.164;2022-11-28T02:52:08;15.40;;;4.85;;
68247;SDS011;55064;49.636;12.164;2022-11-28T02:54:40;14.05;;;4.45;;
68247;SDS011;55064;49.636;12.164;2022-11-28T02:57:07;13.43;;;5.30;;
68247;SDS011;55064;49.636;12.164;2022-11-28T03:10:44;12.93;;;4.50;;
68247;SDS011;55064;49.636;12.164;2022-11-28T03:21:41;10.97;;;4.00;;
68247;SDS011;55064;49.636;12.164;2022-11-28T03:24:19;12.98;;;4.55;;
68247;SDS011;55064;49.636;12.164;2022-11-28T03:26:51;14.20;;;4.78;;
68247;SDS011;55064;49.636;12.164;2022-11-28T03:32:10;14.32;;;4.75;;
68247;SDS011;55064;49.636;12.164;2022-11-28T03:34:40;13.80;;;4.97;;
68247;SDS011;55064;49.636;12.164;2022-11-28T03:37:10;13.70;;;5.18;;
68247;SDS011;55064;49.636;12.164;2022-11-28T03:39:41;15.45;;;5.00;;
68247;SDS011;55064;49.636;12.164;2022-11-28T03:42:18;13.85;;;5.22;;
68247;SDS011;55064;49.636;12.164;2022-11-28T03:44:49;12.90;;;4.68;;
68247;SDS011;55064;49.636;12.164;2022-11-28T03:47:20;17.63;;;7.77;;
68247;SDS011;55064;49.636;12.164;2022-11-28T03:49:52;13.52;;;5.03;;
68247;SDS011;55064;49.636;12.164;2022-11-28T03:52:28;17.02;;;5.43;;
68247;SDS011;55064;49.636;12.164;2022-11-28T03:54:59;19.70;;;6.15;;
68247;SDS011;55064;49.636;12.164;2022-11-28T03:57:36;15.75;;;5.47;;
68247;SDS011;55064;49.636;12.164;2022-11-28T04:00:09;20.83;;;6.47;;
68247;SDS011;55064;49.636;12.164;2022-11-28T04:05:27;17.00;;;5.68;;
68247;SDS011;55064;49.636;12.164;2022-11-28T04:08:06;19.13;;;6.45;;
68247;SDS011;55064;49.636;12.164;2022-11-28T04:10:43;21.98;;;5.90;;
68247;SDS011;55064;49.636;12.164;2022-11-28T04:15:42;25.17;;;7.57;;
68247;SDS011;55064;49.636;12.164;2022-11-28T04:21:12;22.13;;;7.82;;
68247;SDS011;55064;49.636;12.164;2022-11-28T04:23:54;24.92;;;7.82;;
68247;SDS011;55064;49.636;12.164;2022-11-28T04:26:33;22.40;;;7.40;;
68247;SDS011;55064;49.636;12.164;2022-11-28T04:29:03;22.52;;;7.88;;
68247;SDS011;55064;49.636;12.164;2022-11-28T04:31:31;20.88;;;6.82;;
68247;SDS011;55064;49.636;12.164;2022-11-28T04:34:03;20.33;;;7.05;;
68247;SDS011;55064;49.636;12.164;2022-11-28T04:36:31;21.08;;;7.13;;
68247;SDS011;55064;49.636;12.164;2022-11-28T04:39:03;23.93;;;6.40;;
68247;SDS011;55064;49.636;12.164;2022-11-28T04:41:39;21.08;;;6.88;;
68247;SDS011;55064;49.636;12.164;2022-11-28T04:44:36;21.25;;;7.95;;
68247;SDS011;55064;49.636;12.164;2022-11-28T04:47:06;17.58;;;5.90;;
68247;SDS011;55064;49.636;12.164;2022-11-28T04:49:31;24.65;;;7.63;;
68247;SDS011;55064;49.636;12.164;2022-11-28T04:52:08;16.43;;;6.13;;
68247;SDS011;55064;49.636;12.164;2022-11-28T04:57:20;21.55;;;7.78;;
68247;SDS011;55064;49.636;12.164;2022-11-28T04:59:51;19.40;;;6.63;;
68247;SDS011;55064;49.636;12.164;2022-11-28T05:02:17;22.80;;;7.57;;
68247;SDS011;55064;49.636;12.164;2022-11-28T05:04:45;21.67;;;7.80;;
68247;SDS011;55064;49.636;12.164;2022-11-28T05:07:13;23.13;;;6.93;;
68247;SDS011;55064;49.636;12.164;2022-11-28T05:09:38;20.87;;;7.40;;
68247;SDS011;55064;49.636;12.164;2022-11-28T05:12:04;21.20;;;7.87;;
68247;SDS011;55064;49.636;12.164;2022-11-28T05:14:30;20.60;;;6.80;;
68247;SDS011;55064;49.636;12.164;2022-11-28T05:16:55;22.10;;;8.37;;
68247;SDS011;55064;49.636;12.164;2022-11-28T05:19:23;20.40;;;7.07;;
68247;SDS011;55064;49.636;12.164;2022-11-28T05:21:48;22.57;;;8.77;;
68247;SDS011;55064;49.636;12.164;2022-11-28T05:24:14;19.53;;;7.43;;
68247;SDS011;55064;49.636;12.164;2022-11-28T05:26:40;22.23;;;8.20;;
68247;SDS011;55064;49.636;12.164;2022-11-28T05:29:06;22.02;;;8.13;;
68247;SDS011;55064;49.636;12.164;2022-11-28T05:31:32;23.03;;;7.90;;
68247;SDS011;55064;49.636;12.164;2022-11-28T05:34:00;20.10;;;7.00;;
68247;SDS011;55064;49.636;12.164;2022-11-28T05:36:28;21.00;;;7.25;;
68247;SDS011;55064;49.636;12.164;2022-11-28T05:38:56;20.88;;;7.00;;
68247;SDS011;55064;49.636;12.164;2022-11-28T05:41:22;20.90;;;7.73;;
68247;SDS011;55064;49.636;12.164;2022-11-28T05:43:54;17.80;;;6.25;;
68247;SDS011;55064;49.636;12.164;2022-11-28T05:46:22;18.67;;;7.72;;
68247;SDS011;55064;49.636;12.164;2022-11-28T05:48:48;14.77;;;5.17;;
68247;SDS011;55064;49.636;12.164;2022-11-28T05:51:15;19.40;;;7.18;;
68247;SDS011;55064;49.636;12.164;2022-11-28T05:53:43;19.30;;;6.87;;
68247;SDS011;55064;49.636;12.164;2022-11-28T05:56:10;17.17;;;6.80;;
68247;SDS011;55064;49.636;12.164;2022-11-28T05:58:37;18.10;;;6.65;;
68247;SDS011;55064;49.636;12.164;2022-11-28T06:01:13;14.40;;;4.47;;
68247;SDS011;55064;49.636;12.164;2022-11-28T06:03:42;18.35;;;7.20;;
68247;SDS011;55064;49.636;12.164;2022-11-28T06:06:11;16.93;;;6.13;;
68247;SDS011;55064;49.636;12.164;2022-11-28T06:08:38;20.67;;;7.97;;
68247;SDS011;55064;49.636;12.164;2022-11-28T06:11:06;20.40;;;7.57;;
68247;SDS011;55064;49.636;12.164;2022-11-28T06:13:32;17.38;;;6.32;;
68247;SDS011;55064;49.636;12.164;2022-11-28T06:15:58;22.57;;;8.40;;
68247;SDS011;55064;49.636;12.164;2022-11-28T06:18:26;17.25;;;6.70;;
68247;SDS011;55064;49.636;12.164;2022-11-28T06:20:51;16.33;;;6.13;;
68247;SDS011;55064;49.636;12.164;2022-11-28T06:23:16;18.25;;;6.40;;
68247;SDS011;55064;49.636;12.164;2022-11-28T06:25:44;21.53;;;8.07;;
68247;SDS011;55064;49.636;12.164;2022-11-28T06:28:12;16.38;;;6.05;;
68247;SDS011;55064;49.636;12.164;2022-11-28T06:30:37;20.60;;;7.80;;
68247;SDS011;55064;49.636;12.164;2022-11-28T06:33:06;16.60;;;6.30;;
68247;SDS011;55064;49.636;12.164;2022-11-28T06:35:32;22.07;;;8.47;;
68247;SDS011;55064;49.636;12.164;2022-11-28T06:38:02;16.30;;;5.93;;
68247;SDS011;55064;49.636;12.164;2022-11-28T06:40:31;18.27;;;6.83;;
68247;SDS011;55064;49.636;12.164;2022-11-28T06:42:57;21.67;;;8.15;;
68247;SDS011;55064;49.636;12.164;2022-11-28T06:45:24;22.08;;;7.35;;
68247;SDS011;55064;49.636;12.164;2022-11-28T06:47:49;17.23;;;6.53;;
68247;SDS011;55064;49.636;12.164;2022-11-28T06:50:17;21.80;;;6.85;;
68247;SDS011;55064;49.636;12.164;2022-11-28T06:52:45;18.80;;;5.30;;
68247;SDS011;55064;49.636;12.164;2022-11-28T06:55:10;18.83;;;6.47;;
68247;SDS011;55064;49.636;12.164;2022-11-28T06:57:35;17.47;;;5.53;;
68247;SDS011;55064;49.636;12.164;2022-11-28T07:00:02;17.02;;;6.03;;
68247;SDS011;55064;49.636;12.164;2022-11-28T07:02:29;17.77;;;7.00;;
68247;SDS011;55064;49.636;12.164;2022-11-28T07:04:54;16.77;;;6.30;;
68247;SDS011;55064;49.636;12.164;2022-11-28T07:07:20;19.87;;;7.20;;
68247;SDS011;55064;49.636;12.164;2022-11-28T07:09:45;20.08;;;7.88;;
68247;SDS011;55064;49.636;12.164;2022-11-28T07:12:11;22.97;;;8.43;;
68247;SDS011;55064;49.636;12.164;2022-11-28T07:14:38;19.42;;;7.60;;
68247;SDS011;55064;49.636;12.164;2022-11-28T07:17:04;21.87;;;8.63;;
68247;SDS011;55064;49.636;12.164;2022-11-28T07:19:29;20.57;;;6.80;;
68247;SDS011;55064;49.636;12.164;2022-11-28T07:21:54;21.57;;;7.40;;
68247;SDS011;55064;49.636;12.164;2022-11-28T07:24:20;20.13;;;7.47;;
68247;SDS011;55064;49.636;12.164;2022-11-28T07:26:45;20.07;;;8.07;;
68247;SDS011;55064;49.636;12.164;2022-11-28T07:29:16;21.58;;;8.02;;
68247;SDS011;55064;49.636;12.164;2022-11-28T07:31:42;20.75;;;8.25;;
68247;SDS011;55064;49.636;12.164;2022-11-28T07:34:09;20.93;;;6.60;;
68247;SDS011;55064;49.636;12.164;2022-11-28T07:36:36;20.55;;;7.03;;
68247;SDS011;55064;49.636;12.164;2022-11-28T07:39:05;22.23;;;7.93;;
68247;SDS011;55064;49.636;12.164;2022-11-28T07:41:32;20.92;;;8.00;;
68247;SDS011;55064;49.636;12.164;2022-11-28T07:43:59;20.43;;;7.37;;
68247;SDS011;55064;49.636;12.164;2022-11-28T07:46:25;21.05;;;7.93;;
68247;SDS011;55064;49.636;12.164;2022-11-28T07:48:53;19.27;;;7.10;;
68247;SDS011;55064;49.636;12.164;2022-11-28T07:51:21;20.35;;;6.75;;
68247;SDS011;55064;49.636;12.164;2022-11-28T07:53:48;18.03;;;5.87;;
68247;SDS011;55064;49.636;12.164;2022-11-28T07:56:16;18.65;;;6.22;;
68247;SDS011;55064;49.636;12.164;2022-11-28T07:58:54;17.40;;;6.15;;
68247;SDS011;55064;49.636;12.164;2022-11-28T08:01:23;19.20;;;7.23;;
68247;SDS011;55064;49.636;12.164;2022-11-28T08:03:52;19.92;;;6.90;;
68247;SDS011;55064;49.636;12.164;2022-11-28T08:06:18;19.67;;;7.40;;
68247;SDS011;55064;49.636;12.164;2022-11-28T08:08:46;18.52;;;6.93;;
68247;SDS011;55064;49.636;12.164;2022-11-28T08:11:12;18.33;;;7.13;;
68247;SDS011;55064;49.636;12.164;2022-11-28T08:13:39;19.13;;;7.53;;
68247;SDS011;55064;49.636;12.164;2022-11-28T08:16:11;17.95;;;7.57;;
68247;SDS011;55064;49.636;12.164;2022-11-28T08:18:38;19.67;;;6.97;;
68247;SDS011;55064;49.636;12.164;2022-11-28T08:21:08;20.70;;;8.80;;
68247;SDS011;55064;49.636;12.164;2022-11-28T08:23:36;20.47;;;7.60;;
68247;SDS011;55064;49.636;12.164;2022-11-28T08:26:03;16.65;;;6.07;;
68247;SDS011;55064;49.636;12.164;2022-11-28T08:28:30;18.98;;;7.38;;
68247;SDS011;55064;49.636;12.164;2022-11-28T08:30:56;17.10;;;6.93;;
68247;SDS011;55064;49.636;12.164;2022-11-28T08:33:22;19.27;;;6.63;;
68247;SDS011;55064;49.636;12.164;2022-11-28T08:35:48;19.70;;;7.30;;
68247;SDS011;55064;49.636;12.164;2022-11-28T08:38:15;20.30;;;8.05;;
68247;SDS011;55064;49.636;12.164;2022-11-28T08:40:40;17.13;;;6.70;;
68247;SDS011;55064;49.636;12.164;2022-11-28T08:43:05;18.97;;;7.90;;
68247;SDS011;55064;49.636;12.164;2022-11-28T08:45:33;22.50;;;8.32;;
68247;SDS011;55064;49.636;12.164;2022-11-28T08:48:00;19.38;;;7.60;;
68247;SDS011;55064;49.636;12.164;2022-11-28T08:50:26;18.83;;;7.10;;
68247;SDS011;55064;49.636;12.164;2022-11-28T08:52:52;21.40;;;7.70;;
68247;SDS011;55064;49.636;12.164;2022-11-28T08:55:18;21.93;;;7.87;;
68247;SDS011;55064;49.636;12.164;2022-11-28T08:57:43;19.85;;;7.25;;
68247;SDS011;55064;49.636;12.164;2022-11-28T09:00:09;19.53;;;7.83;;
68247;SDS011;55064;49.636;12.164;2022-11-28T09:02:35;20.17;;;7.78;;
68247;SDS011;55064;49.636;12.164;2022-11-28T09:05:00;22.47;;;7.57;;
68247;SDS011;55064;49.636;12.164;2022-11-28T09:07:26;19.43;;;7.43;;
68247;SDS011;55064;49.636;12.164;2022-11-28T09:09:51;19.33;;;7.50;;
68247;SDS011;55064;49.636;12.164;2022-11-28T09:12:19;18.50;;;7.47;;
68247;SDS011;55064;49.636;12.164;2022-11-28T09:14:46;21.70;;;8.18;;
68247;SDS011;55064;49.636;12.164;2022-11-28T09:17:12;23.53;;;8.33;;
68247;SDS011;55064;49.636;12.164;2022-11-28T09:19:39;20.08;;;7.13;;
68247;SDS011;55064;49.636;12.164;2022-11-28T09:22:05;22.40;;;8.60;;
68247;SDS011;55064;49.636;12.164;2022-11-28T09:24:30;21.13;;;7.70;;
68247;SDS011;55064;49.636;12.164;2022-11-28T09:26:55;21.57;;;8.30;;
68247;SDS011;55064;49.636;12.164;2022-11-28T09:29:21;20.93;;;8.43;;
68247;SDS011;55064;49.636;12.164;2022-11-28T09:31:46;23.17;;;8.83;;
68247;SDS011;55064;49.636;12.164;2022-11-28T09:34:12;21.63;;;8.17;;
68247;SDS011;55064;49.636;12.164;2022-11-28T09:36:38;21.03;;;8.13;;
68247;SDS011;55064;49.636;12.164;2022-11-28T09:39:03;21.33;;;7.32;;
68247;SDS011;55064;49.636;12.164;2022-11-28T09:44:32;20.05;;;6.90;;
68247;SDS011;55064;49.636;12.164;2022-11-28T09:47:04;24.90;;;9.23;;
68247;SDS011;55064;49.636;12.164;2022-11-28T09:49:43;23.08;;;8.85;;
68247;SDS011;55064;49.636;12.164;2022-11-28T09:55:18;21.15;;;7.75;;
68247;SDS011;55064;49.636;12.164;2022-11-28T09:58:04;22.83;;;8.43;;
68247;SDS011;55064;49.636;12.164;2022-11-28T10:06:54;26.27;;;9.23;;
68247;SDS011;55064;49.636;12.164;2022-11-28T10:17:31;23.70;;;8.18;;
68247;SDS011;55064;49.636;12.164;2022-11-28T10:23:37;24.98;;;9.93;;
68247;SDS011;55064;49.636;12.164;2022-11-28T10:25:50;23.45;;;9.15;;
68247;SDS011;55064;49.636;12.164;2022-11-28T10:28:23;20.70;;;8.13;;
68247;SDS011;55064;49.636;12.164;2022-11-28T10:30:55;24.63;;;10.63;;
68247;SDS011;55064;49.636;12.164;2022-11-28T10:36:26;23.77;;;8.73;;
68247;SDS011;55064;49.636;12.164;2022-11-28T10:39:16;23.63;;;8.50;;
68247;SDS011;55064;49.636;12.164;2022-11-28T10:44:38;22.63;;;9.25;;
68247;SDS011;55064;49.636;12.164;2022-11-28T10:52:22;22.13;;;9.05;;
68247;SDS011;55064;49.636;12.164;2022-11-28T11:00:59;21.70;;;7.88;;
68247;SDS011;55064;49.636;12.164;2022-11-28T11:03:29;19.10;;;7.00;;
68247;SDS011;55064;49.636;12.164;2022-11-28T11:05:56;21.50;;;7.95;;
68247;SDS011;55064;49.636;12.164;2022-11-28T11:08:24;23.50;;;7.90;;
68247;SDS011;55064;49.636;12.164;2022-11-28T11:10:55;18.70;;;6.93;;
68247;SDS011;55064;49.636;12.164;2022-11-28T11:13:28;19.50;;;7.72;;
68247;SDS011;55064;49.636;12.164;2022-11-28T11:16:05;18.25;;;7.03;;
68247;SDS011;55064;49.636;12.164;2022-11-28T11:24:14;21.08;;;7.68;;
68247;SDS011;55064;49.636;12.164;2022-11-28T11:26:42;20.95;;;7.63;;
68247;SDS011;55064;49.636;12.164;2022-11-28T11:31:54;19.45;;;6.97;;
68247;SDS011;55064;49.636;12.164;2022-11-28T11:34:33;20.33;;;8.07;;
68247;SDS011;55064;49.636;12.164;2022-11-28T11:37:47;22.42;;;8.45;;
68247;SDS011;55064;49.636;12.164;2022-11-28T11:39:58;22.25;;;8.98;;
68247;SDS011;55064;49.636;12.164;2022-11-28T11:42:26;18.42;;;7.32;;
68247;SDS011;55064;49.636;12.164;2022-11-28T11:44:54;19.50;;;7.65;;
68247;SDS011;55064;49.636;12.164;2022-11-28T11:47:42;19.07;;;7.97;;
68247;SDS011;55064;49.636;12.164;2022-11-28T11:50:15;19.65;;;7.68;;
68247;SDS011;55064;49.636;12.164;2022-11-28T11:52:58;18.90;;;7.63;;
68247;SDS011;55064;49.636;12.164;2022-11-28T11:55:25;22.13;;;8.57;;
68247;SDS011;55064;49.636;12.164;2022-11-28T11:57:54;23.42;;;8.05;;
68247;SDS011;55064;49.636;12.164;2022-11-28T12:00:24;22.80;;;8.00;;
68247;SDS011;55064;49.636;12.164;2022-11-28T12:02:57;23.25;;;8.73;;
68247;SDS011;55064;49.636;12.164;2022-11-28T12:10:47;19.65;;;7.22;;
68247;SDS011;55064;49.636;12.164;2022-11-28T12:13:18;18.67;;;8.03;;
68247;SDS011;55064;49.636;12.164;2022-11-28T12:18:34;20.55;;;8.38;;
68247;SDS011;55064;49.636;12.164;2022-11-28T12:21:11;18.88;;;7.75;;
68247;SDS011;55064;49.636;12.164;2022-11-28T12:29:09;20.38;;;7.95;;
68247;SDS011;55064;49.636;12.164;2022-11-28T12:35:03;21.63;;;7.90;;
68247;SDS011;55064;49.636;12.164;2022-11-28T12:50:42;15.70;;;6.57;;
68247;SDS011;55064;49.636;12.164;2022-11-28T12:58:54;20.60;;;8.75;;
68247;SDS011;55064;49.636;12.164;2022-11-28T13:15:06;19.92;;;8.80;;
68247;SDS011;55064;49.636;12.164;2022-11-28T13:17:42;23.67;;;9.52;;
68247;SDS011;55064;49.636;12.164;2022-11-28T13:20:13;20.17;;;8.10;;
68247;SDS011;55064;49.636;12.164;2022-11-28T13:22:54;19.27;;;7.10;;
68247;SDS011;55064;49.636;12.164;2022-11-28T13:31:18;24.17;;;8.80;;
68247;SDS011;55064;49.636;12.164;2022-11-28T13:33:55;22.10;;;8.52;;
68247;SDS011;55064;49.636;12.164;2022-11-28T13:39:26;23.10;;;8.68;;
68247;SDS011;55064;49.636;12.164;2022-11-28T13:47:33;19.92;;;8.13;;
68247;SDS011;55064;49.636;12.164;2022-11-28T13:52:56;18.88;;;8.20;;
68247;SDS011;55064;49.636;12.164;2022-11-28T14:01:05;32.08;;;11.07;;
68247;SDS011;55064;49.636;12.164;2022-11-28T14:03:46;23.63;;;9.33;;
68247;SDS011;55064;49.636;12.164;2022-11-28T14:06:16;18.77;;;8.05;;
68247;SDS011;55064;49.636;12.164;2022-11-28T14:08:45;22.42;;;9.68;;
68247;SDS011;55064;49.636;12.164;2022-11-28T14:17:17;18.50;;;7.20;;
68247;SDS011;55064;49.636;12.164;2022-11-28T14:19:55;24.23;;;9.02;;
68247;SDS011;55064;49.636;12.164;2022-11-28T14:22:46;20.42;;;9.43;;
68247;SDS011;55064;49.636;12.164;2022-11-28T14:27:53;20.05;;;8.52;;
68247;SDS011;55064;49.636;12.164;2022-11-28T14:30:29;30.50;;;10.63;;
68247;SDS011;55064;49.636;12.164;2022-11-28T14:33:12;26.88;;;10.63;;
68247;SDS011;55064;49.636;12.164;2022-11-28T14:41:08;26.60;;;10.35;;
68247;SDS011;55064;49.636;12.164;2022-11-28T14:46:18;27.15;;;10.30;;
68247;SDS011;55064;49.636;12.164;2022-11-28T14:52:02;26.75;;;11.10;;
68247;SDS011;55064;49.636;12.164;2022-11-28T14:54:35;21.75;;;9.07;;
68247;SDS011;55064;49.636;12.164;2022-11-28T14:59:51;25.85;;;10.20;;
68247;SDS011;55064;49.636;12.164;2022-11-28T15:02:42;21.90;;;9.65;;
68247;SDS011;55064;49.636;12.164;2022-11-28T15:08:20;22.90;;;9.50;;
68247;SDS011;55064;49.636;12.164;2022-11-28T15:16:44;25.95;;;10.10;;
68247;SDS011;55064;49.636;12.164;2022-11-28T15:21:46;25.57;;;9.83;;
68247;SDS011;55064;49.636;12.164;2022-11-28T15:24:14;24.85;;;10.32;;
68247;SDS011;55064;49.636;12.164;2022-11-28T15:26:41;26.02;;;10.23;;
68247;SDS011;55064;49.636;12.164;2022-11-28T15:29:26;25.10;;;9.53;;
68247;SDS011;55064;49.636;12.164;2022-11-28T15:31:53;22.17;;;9.15;;
68247;SDS011;55064;49.636;12.164;2022-11-28T15:34:33;25.27;;;10.45;;
68247;SDS011;55064;49.636;12.164;2022-11-28T15:37:04;23.85;;;9.80;;
68247;SDS011;55064;49.636;12.164;2022-11-28T15:41:58;21.98;;;9.30;;
68247;SDS011;55064;49.636;12.164;2022-11-28T15:44:27;25.70;;;10.30;;
68247;SDS011;55064;49.636;12.164;2022-11-28T15:46:53;25.02;;;10.02;;
68247;SDS011;55064;49.636;12.164;2022-11-28T15:51:50;24.70;;;9.55;;
68247;SDS011;55064;49.636;12.164;2022-11-28T15:54:37;25.50;;;10.13;;
68247;SDS011;55064;49.636;12.164;2022-11-28T16:04:57;27.45;;;11.32;;
68247;SDS011;55064;49.636;12.164;2022-11-28T16:07:40;27.67;;;10.63;;
68247;SDS011;55064;49.636;12.164;2022-11-28T16:12:39;31.10;;;13.10;;
68247;SDS011;55064;49.636;12.164;2022-11-28T16:15:05;27.67;;;11.43;;
68247;SDS011;55064;49.636;12.164;2022-11-28T16:17:31;31.58;;;12.70;;
68247;SDS011;55064;49.636;12.164;2022-11-28T16:20:00;28.77;;;11.57;;
68247;SDS011;55064;49.636;12.164;2022-11-28T16:22:29;27.10;;;12.32;;
68247;SDS011;55064;49.636;12.164;2022-11-28T16:25:09;28.60;;;13.00;;
68247;SDS011;55064;49.636;12.164;2022-11-28T16:27:38;31.25;;;13.93;;
68247;SDS011;55064;49.636;12.164;2022-11-28T16:32:59;28.10;;;12.07;;
68247;SDS011;55064;49.636;12.164;2022-11-28T16:35:29;29.15;;;13.35;;
68247;SDS011;55064;49.636;12.164;2022-11-28T16:38:14;29.67;;;13.07;;
68247;SDS011;55064;49.636;12.164;2022-11-28T16:40:45;31.92;;;13.30;;
68247;SDS011;55064;49.636;12.164;2022-11-28T16:46:18;28.77;;;12.00;;
68247;SDS011;55064;49.636;12.164;2022-11-28T16:48:55;29.75;;;12.02;;
68247;SDS011;55064;49.636;12.164;2022-11-28T16:51:27;33.87;;;12.90;;
68247;SDS011;55064;49.636;12.164;2022-11-28T16:53:58;29.05;;;12.60;;
68247;SDS011;55064;49.636;12.164;2022-11-28T16:58:54;33.53;;;14.43;;
68247;SDS011;55064;49.636;12.164;2022-11-28T17:01:23;32.25;;;11.80;;
68247;SDS011;55064;49.636;12.164;2022-11-28T17:03:52;28.63;;;11.80;;
68247;SDS011;55064;49.636;12.164;2022-11-28T17:09:07;30.95;;;13.00;;
68247;SDS011;55064;49.636;12.164;2022-11-28T17:11:36;33.53;;;12.20;;
68247;SDS011;55064;49.636;12.164;2022-11-28T17:14:09;29.92;;;11.68;;
68247;SDS011;55064;49.636;12.164;2022-11-28T17:19:11;30.73;;;12.27;;
68247;SDS011;55064;49.636;12.164;2022-11-28T17:24:22;38.60;;;14.40;;
68247;SDS011;55064;49.636;12.164;2022-11-28T17:26:50;30.45;;;10.88;;
68247;SDS011;55064;49.636;12.164;2022-11-28T17:29:16;37.03;;;14.63;;
68247;SDS011;55064;49.636;12.164;2022-11-28T17:31:42;33.97;;;13.00;;
68247;SDS011;55064;49.636;12.164;2022-11-28T17:36:46;33.42;;;14.18;;
68247;SDS011;55064;49.636;12.164;2022-11-28T17:39:12;35.55;;;15.88;;
68247;SDS011;55064;49.636;12.164;2022-11-28T17:41:38;30.97;;;13.77;;
68247;SDS011;55064;49.636;12.164;2022-11-28T17:44:04;32.00;;;13.18;;
68247;SDS011;55064;49.636;12.164;2022-11-28T17:46:30;33.63;;;14.20;;
68247;SDS011;55064;49.636;12.164;2022-11-28T17:48:57;26.03;;;10.67;;
68247;SDS011;55064;49.636;12.164;2022-11-28T17:51:23;29.63;;;13.00;;
68247;SDS011;55064;49.636;12.164;2022-11-28T17:53:49;31.27;;;13.30;;
68247;SDS011;55064;49.636;12.164;2022-11-28T17:56:14;31.33;;;13.03;;
68247;SDS011;55064;49.636;12.164;2022-11-28T17:58:45;33.03;;;13.05;;
68247;SDS011;55064;49.636;12.164;2022-11-28T18:01:14;32.13;;;12.98;;
68247;SDS011;55064;49.636;12.164;2022-11-28T18:03:42;34.78;;;13.20;;
68247;SDS011;55064;49.636;12.164;2022-11-28T18:06:13;36.00;;;14.73;;
68247;SDS011;55064;49.636;12.164;2022-11-28T18:08:41;32.05;;;12.82;;
68247;SDS011;55064;49.636;12.164;2022-11-28T18:11:11;30.50;;;13.10;;
68247;SDS011;55064;49.636;12.164;2022-11-28T18:13:38;33.35;;;13.80;;
68247;SDS011;55064;49.636;12.164;2022-11-28T18:16:06;30.58;;;13.18;;
68247;SDS011;55064;49.636;12.164;2022-11-28T18:18:35;32.15;;;13.45;;
68247;SDS011;55064;49.636;12.164;2022-11-28T18:21:04;32.05;;;13.75;;
68247;SDS011;55064;49.636;12.164;2022-11-28T18:23:33;33.03;;;13.63;;
68247;SDS011;55064;49.636;12.164;2022-11-28T18:26:04;29.80;;;13.55;;
68247;SDS011;55064;49.636;12.164;2022-11-28T18:28:33;33.10;;;13.77;;
68247;SDS011;55064;49.636;12.164;2022-11-28T18:30:59;32.13;;;14.60;;
68247;SDS011;55064;49.636;12.164;2022-11-28T18:33:24;31.70;;;13.50;;
68247;SDS011;55064;49.636;12.164;2022-11-28T18:35:50;33.63;;;13.53;;
68247;SDS011;55064;49.636;12.164;2022-11-28T18:38:15;32.17;;;12.93;;
68247;SDS011;55064;49.636;12.164;2022-11-28T18:40:42;32.67;;;12.57;;
68247;SDS011;55064;49.636;12.164;2022-11-28T18:43:07;28.67;;;11.87;;
68247;SDS011;55064;49.636;12.164;2022-11-28T18:45:33;34.35;;;12.57;;
68247;SDS011;55064;49.636;12.164;2022-11-28T18:48:01;31.90;;;13.50;;
68247;SDS011;55064;49.636;12.164;2022-11-28T18:50:27;32.03;;;13.75;;
68247;SDS011;55064;49.636;12.164;2022-11-28T18:52:53;33.17;;;13.80;;